createdAt,value
2023-10-29T00:02:13.007Z,10.45
2023-10-29T00:04:40.252Z,11.65
2023-10-29T00:07:07.632Z,10.43
2023-10-29T00:09:34.742Z,9.60
2023-10-29T00:12:11.094Z,11.55
2023-10-29T00:14:38.124Z,10.05
2023-10-29T00:17:05.421Z,11.18
2023-10-29T00:19:35.749Z,9.75
2023-10-29T00:22:18.090Z,9.90
2023-10-29T00:24:45.231Z,11.50
2023-10-29T00:27:13.668Z,10.68
2023-10-29T00:29:42.851Z,8.43
2023-10-29T00:32:10.237Z,13.88
2023-10-29T00:34:37.458Z,9.85
2023-10-29T00:37:04.882Z,8.45
2023-10-29T00:39:31.983Z,8.57
2023-10-29T00:41:59.308Z,8.60
2023-10-29T00:44:27.190Z,10.52
2023-10-29T00:46:55.771Z,9.38
2023-10-29T00:49:23.084Z,9.63
2023-10-29T00:51:50.471Z,10.95
2023-10-29T00:54:18.187Z,9.25
2023-10-29T00:56:45.994Z,8.48
2023-10-29T00:59:13.251Z,9.15
2023-10-29T01:01:40.485Z,11.25
2023-10-29T01:04:08.111Z,9.50
2023-10-29T01:06:41.973Z,12.13
2023-10-29T01:09:10.141Z,11.75
2023-10-29T01:11:37.396Z,10.07
2023-10-29T01:14:04.584Z,11.27
2023-10-29T01:16:31.857Z,15.43
2023-10-29T01:18:59.573Z,14.05
2023-10-29T01:21:28.573Z,7.88
2023-10-29T01:23:55.654Z,10.90
2023-10-29T01:26:23.002Z,12.45
2023-10-29T01:28:50.565Z,12.02
2023-10-29T01:31:17.863Z,16.67
2023-10-29T01:33:44.884Z,16.60
2023-10-29T01:36:12.112Z,14.63
2023-10-29T01:38:39.258Z,15.40
2023-10-29T01:41:06.569Z,18.42
2023-10-29T01:43:33.616Z,20.75
2023-10-29T01:46:00.817Z,12.50
2023-10-29T01:48:28.552Z,17.17
2023-10-29T01:50:57.170Z,15.57
2023-10-29T01:53:24.273Z,24.77
2023-10-29T01:55:52.565Z,23.75
2023-10-29T01:58:19.649Z,22.15
2023-10-29T02:00:46.893Z,23.73
2023-10-29T02:03:14.084Z,19.63
2023-10-29T02:05:41.636Z,18.33
2023-10-29T02:08:09.078Z,17.58
2023-10-29T02:10:36.257Z,19.30
2023-10-29T02:13:03.227Z,24.92
2023-10-29T02:15:30.459Z,24.58
2023-10-29T02:17:57.518Z,31.02
2023-10-29T02:20:24.824Z,23.30
2023-10-29T02:22:51.875Z,22.42
2023-10-29T02:25:19.361Z,23.27
2023-10-29T02:27:46.380Z,19.70
2023-10-29T02:30:13.948Z,26.90
2023-10-29T02:32:41.019Z,28.02
2023-10-29T02:35:09.514Z,33.78
2023-10-29T02:37:36.549Z,25.50
2023-10-29T02:40:04.856Z,25.30
2023-10-29T02:42:31.876Z,30.13
2023-10-29T02:45:00.142Z,27.23
2023-10-29T02:47:27.223Z,28.27
2023-10-29T02:49:54.502Z,29.15
2023-10-29T02:52:21.540Z,24.83
2023-10-29T02:54:49.770Z,27.38
2023-10-29T02:57:16.827Z,27.40
2023-10-29T02:59:44.299Z,28.25
2023-10-29T03:02:11.349Z,27.90
2023-10-29T03:04:38.612Z,27.05
2023-10-29T03:07:05.538Z,22.77
2023-10-29T03:09:32.805Z,22.58
2023-10-29T03:11:59.900Z,27.30
2023-10-29T03:14:27.253Z,20.95
2023-10-29T03:16:54.282Z,28.92
2023-10-29T03:19:21.616Z,35.38
2023-10-29T03:21:50.362Z,25.75
2023-10-29T03:24:18.596Z,37.83
2023-10-29T03:26:45.723Z,27.67
2023-10-29T03:29:12.981Z,29.27
2023-10-29T03:31:40.114Z,29.52
2023-10-29T03:34:09.178Z,36.65
2023-10-29T03:36:36.207Z,31.35
2023-10-29T03:39:04.323Z,33.70
2023-10-29T03:41:31.495Z,29.15
2023-10-29T03:43:58.980Z,30.20
2023-10-29T03:46:26.099Z,29.75
2023-10-29T03:48:54.107Z,28.73
2023-10-29T03:51:21.278Z,28.13
2023-10-29T03:53:48.614Z,30.58
2023-10-29T03:56:15.665Z,30.35
2023-10-29T03:58:42.966Z,33.58
2023-10-29T04:01:13.861Z,45.10
2023-10-29T04:03:42.104Z,37.22
2023-10-29T04:06:12.727Z,33.05
2023-10-29T04:08:40.550Z,26.55
2023-10-29T04:11:07.518Z,28.95
2023-10-29T04:13:34.848Z,36.70
2023-10-29T04:16:02.060Z,34.25
2023-10-29T04:18:32.760Z,33.97
2023-10-29T04:21:02.548Z,26.70
2023-10-29T04:23:29.829Z,29.23
2023-10-29T04:25:56.906Z,25.17
2023-10-29T04:28:24.110Z,25.50
2023-10-29T04:30:51.128Z,19.38
2023-10-29T04:33:18.601Z,28.00
2023-10-29T04:35:45.770Z,21.98
2023-10-29T04:38:13.749Z,26.10
2023-10-29T04:40:40.766Z,23.15
2023-10-29T04:43:08.065Z,22.35
2023-10-29T04:45:35.094Z,24.30
2023-10-29T04:48:02.369Z,22.10
2023-10-29T04:50:31.623Z,22.67
2023-10-29T04:52:59.460Z,23.23
2023-10-29T04:55:28.133Z,22.92
2023-10-29T04:57:55.392Z,18.60
2023-10-29T05:00:22.436Z,20.55
2023-10-29T05:02:49.807Z,21.73
2023-10-29T05:05:16.930Z,19.52
2023-10-29T05:07:46.197Z,23.00
2023-10-29T05:10:14.645Z,23.15
2023-10-29T05:12:42.293Z,27.27
2023-10-29T05:15:09.853Z,23.35
2023-10-29T05:17:37.313Z,28.95
2023-10-29T05:20:04.588Z,21.98
2023-10-29T05:22:31.817Z,25.60
2023-10-29T05:24:58.785Z,26.23
2023-10-29T05:27:26.088Z,26.80
2023-10-29T05:29:52.982Z,18.80
2023-10-29T05:32:20.968Z,20.25
2023-10-29T05:34:48.059Z,15.98
2023-10-29T05:37:15.505Z,25.95
2023-10-29T05:39:43.162Z,18.27
2023-10-29T05:42:11.223Z,19.77
2023-10-29T05:44:38.161Z,18.98
2023-10-29T05:47:05.677Z,16.83
2023-10-29T05:49:32.661Z,43.15
2023-10-29T05:52:00.025Z,25.20
2023-10-29T05:54:27.096Z,17.25
2023-10-29T05:56:54.450Z,16.77
2023-10-29T05:59:21.884Z,23.23
2023-10-29T06:01:49.252Z,25.63
2023-10-29T06:04:16.364Z,29.23
2023-10-29T06:06:43.769Z,18.75
2023-10-29T06:09:23.223Z,18.80
2023-10-29T06:11:51.626Z,21.55
2023-10-29T06:14:18.586Z,22.83
2023-10-29T06:16:46.289Z,19.27
2023-10-29T06:19:13.212Z,16.63
2023-10-29T06:21:41.128Z,15.32
2023-10-29T06:24:08.303Z,12.52
2023-10-29T06:26:36.071Z,14.20
2023-10-29T06:29:03.018Z,13.80
2023-10-29T06:31:30.731Z,13.95
2023-10-29T06:33:57.713Z,14.95
2023-10-29T06:36:25.120Z,15.20
2023-10-29T06:38:53.010Z,14.80
2023-10-29T06:41:20.537Z,13.13
2023-10-29T06:43:47.977Z,17.95
2023-10-29T06:46:18.584Z,19.92
2023-10-29T06:48:45.707Z,13.65
2023-10-29T06:51:12.979Z,14.40
2023-10-29T06:53:40.108Z,16.92
2023-10-29T06:56:07.806Z,85.70
2023-10-29T06:58:34.953Z,22.48
2023-10-29T07:01:09.974Z,22.90
2023-10-29T07:03:39.036Z,17.35
2023-10-29T07:06:08.294Z,47.17
2023-10-29T07:08:36.231Z,197.00
2023-10-29T07:11:04.559Z,150.88
2023-10-29T07:13:32.323Z,84.63
2023-10-29T07:16:04.122Z,631.90
2023-10-29T07:18:31.677Z,171.15
2023-10-29T07:20:59.153Z,459.75
2023-10-29T07:23:26.395Z,206.15
2023-10-29T07:25:53.938Z,118.22
2023-10-29T07:28:20.979Z,52.83
2023-10-29T07:30:48.758Z,128.40
2023-10-29T07:33:15.857Z,324.38
2023-10-29T07:35:43.277Z,174.85
2023-10-29T07:38:10.484Z,103.97
2023-10-29T07:40:37.726Z,116.13
2023-10-29T07:43:05.010Z,109.78
2023-10-29T07:45:32.626Z,54.40
2023-10-29T07:48:00.400Z,62.13
2023-10-29T07:50:28.058Z,322.85
2023-10-29T07:52:54.995Z,337.00
2023-10-29T07:55:22.383Z,241.85
2023-10-29T07:57:49.673Z,90.93
2023-10-29T08:00:17.343Z,47.40
2023-10-29T08:02:46.483Z,36.30
2023-10-29T08:05:14.052Z,66.22
2023-10-29T08:07:41.606Z,169.93
2023-10-29T08:10:10.430Z,134.30
2023-10-29T08:12:37.707Z,48.70
2023-10-29T08:15:05.436Z,64.80
2023-10-29T08:17:32.547Z,73.85
2023-10-29T08:20:00.050Z,45.25
2023-10-29T08:22:27.616Z,27.75
2023-10-29T08:24:56.086Z,103.30
2023-10-29T08:27:23.081Z,106.30
2023-10-29T08:29:50.974Z,47.42
2023-10-29T08:32:18.888Z,29.05
2023-10-29T08:34:46.536Z,24.20
2023-10-29T08:37:13.978Z,19.10
2023-10-29T08:39:41.594Z,22.85
2023-10-29T08:42:08.887Z,22.92
2023-10-29T08:44:37.039Z,93.45
2023-10-29T08:47:04.484Z,21.95
2023-10-29T08:49:31.981Z,16.67
2023-10-29T08:51:58.972Z,24.90
2023-10-29T08:54:26.416Z,31.15
2023-10-29T08:56:53.398Z,25.77
2023-10-29T08:59:21.187Z,13.18
2023-10-29T09:01:48.367Z,16.92
2023-10-29T09:04:16.343Z,24.73
2023-10-29T09:06:44.613Z,26.67
2023-10-29T09:09:13.472Z,29.55
2023-10-29T09:11:40.952Z,13.90
2023-10-29T09:14:10.390Z,16.52
2023-10-29T09:16:37.512Z,13.15
2023-10-29T09:19:04.734Z,13.90
2023-10-29T09:21:31.787Z,23.88
2023-10-29T09:23:59.126Z,15.25
2023-10-29T09:26:26.236Z,11.80
2023-10-29T09:28:53.492Z,15.63
2023-10-29T09:31:20.644Z,10.75
2023-10-29T09:33:48.382Z,14.63
2023-10-29T09:36:15.542Z,10.88
2023-10-29T09:38:43.251Z,11.15
2023-10-29T09:41:10.545Z,17.75
2023-10-29T09:43:42.401Z,11.32
2023-10-29T09:46:11.452Z,12.73
2023-10-29T09:48:39.605Z,9.15
2023-10-29T09:51:07.836Z,6.63
2023-10-29T09:53:37.469Z,8.38
2023-10-29T09:56:11.429Z,8.60
2023-10-29T09:58:40.039Z,8.48
2023-10-29T10:01:07.203Z,7.75
2023-10-29T10:03:34.662Z,7.47
2023-10-29T10:06:01.829Z,8.10
2023-10-29T10:08:30.981Z,7.40
2023-10-29T10:10:59.845Z,8.48
2023-10-29T10:13:38.110Z,7.13
2023-10-29T10:16:10.309Z,8.82
2023-10-29T10:18:51.920Z,7.28
2023-10-29T10:21:21.542Z,6.22
2023-10-29T10:23:53.973Z,5.10
2023-10-29T10:26:38.069Z,9.50
2023-10-29T10:29:08.268Z,6.15
2023-10-29T10:31:37.112Z,5.70
2023-10-29T10:34:15.380Z,4.25
2023-10-29T10:36:43.953Z,3.95
2023-10-29T10:39:12.518Z,14.13
2023-10-29T10:41:43.189Z,11.02
2023-10-29T10:44:15.711Z,7.03
2023-10-29T10:46:53.233Z,6.97
2023-10-29T10:49:21.091Z,4.90
2023-10-29T10:51:50.199Z,5.65
2023-10-29T10:54:20.741Z,5.45
2023-10-29T10:56:49.258Z,6.43
2023-10-29T10:59:16.994Z,3.92
2023-10-29T11:01:44.098Z,3.35
2023-10-29T11:04:11.667Z,3.92
2023-10-29T11:06:40.190Z,3.97
2023-10-29T11:09:15.495Z,3.50
2023-10-29T11:11:55.228Z,2.97
2023-10-29T11:14:24.230Z,5.78
2023-10-29T11:16:57.487Z,4.25
2023-10-29T11:19:45.507Z,3.70
2023-10-29T11:22:23.327Z,6.97
2023-10-29T11:25:16.980Z,3.33
2023-10-29T11:27:49.836Z,2.85
2023-10-29T11:30:19.418Z,3.25
2023-10-29T11:32:47.492Z,5.05
2023-10-29T11:35:22.551Z,7.15
2023-10-29T11:37:51.727Z,8.50
2023-10-29T11:40:25.268Z,10.05
2023-10-29T11:42:56.092Z,5.53
2023-10-29T11:45:29.531Z,16.13
2023-10-29T11:48:10.111Z,7.25
2023-10-29T11:50:37.984Z,5.60
2023-10-29T11:53:05.065Z,3.67
2023-10-29T11:55:53.085Z,3.65
2023-10-29T11:58:23.379Z,2.58
2023-10-29T12:00:51.100Z,5.47
2023-10-29T12:03:22.231Z,4.60
2023-10-29T12:05:57.003Z,2.65
2023-10-29T12:08:24.643Z,2.20
2023-10-29T12:10:53.515Z,2.03
2023-10-29T12:13:20.697Z,1.73
2023-10-29T12:16:01.635Z,2.28
2023-10-29T12:18:29.007Z,5.43
2023-10-29T12:21:10.756Z,8.63
2023-10-29T12:23:38.920Z,4.60
2023-10-29T12:26:09.738Z,9.23
2023-10-29T12:28:37.689Z,3.70
2023-10-29T12:31:08.500Z,4.30
2023-10-29T12:33:37.382Z,1.45
2023-10-29T12:36:15.275Z,4.53
2023-10-29T12:38:42.866Z,2.20
2023-10-29T12:41:21.949Z,1.65
2023-10-29T12:43:53.390Z,1.88
2023-10-29T12:46:22.814Z,3.88
2023-10-29T12:49:00.777Z,3.33
2023-10-29T12:51:33.537Z,3.80
2023-10-29T12:54:20.700Z,4.22
2023-10-29T12:56:51.941Z,3.30
2023-10-29T12:59:39.720Z,6.18
2023-10-29T13:02:07.835Z,3.78
2023-10-29T13:04:36.646Z,2.92
2023-10-29T13:07:12.503Z,0.90
2023-10-29T13:09:40.318Z,1.33
2023-10-29T13:12:09.369Z,1.30
2023-10-29T13:14:37.688Z,15.50
2023-10-29T13:17:05.906Z,6.75
2023-10-29T13:19:33.062Z,2.75
2023-10-29T13:22:00.638Z,2.33
2023-10-29T13:24:27.714Z,3.28
2023-10-29T13:26:55.316Z,3.50
2023-10-29T13:29:22.597Z,1.77
2023-10-29T13:31:50.213Z,5.47
2023-10-29T13:34:17.306Z,2.50
2023-10-29T13:36:45.155Z,3.75
2023-10-29T13:39:12.600Z,2.45
2023-10-29T13:41:40.239Z,3.10
2023-10-29T13:44:07.830Z,1.35
2023-10-29T13:46:35.384Z,2.30
2023-10-29T13:49:03.949Z,3.28
2023-10-29T13:51:31.319Z,3.00
2023-10-29T13:53:58.623Z,2.00
2023-10-29T13:56:26.054Z,1.52
2023-10-29T13:58:52.983Z,3.85
2023-10-29T14:01:21.861Z,2.75
2023-10-29T14:03:50.414Z,2.50
2023-10-29T14:06:18.145Z,2.13
2023-10-29T14:08:45.991Z,1.98
2023-10-29T14:11:15.213Z,1.42
2023-10-29T14:13:46.439Z,2.47
2023-10-29T14:16:15.389Z,3.10
2023-10-29T14:18:44.151Z,1.90
2023-10-29T14:21:12.352Z,1.27
2023-10-29T14:23:39.425Z,1.85
2023-10-29T14:26:06.735Z,1.20
2023-10-29T14:28:33.882Z,7.22
2023-10-29T14:31:01.319Z,217.05
2023-10-29T14:33:28.602Z,46.28
2023-10-29T14:35:59.721Z,10.68
2023-10-29T14:38:28.659Z,8.43
2023-10-29T14:40:57.146Z,3.17
2023-10-29T14:43:24.460Z,4.95
2023-10-29T14:45:52.932Z,2.47
2023-10-29T14:48:20.956Z,2.08
2023-10-29T14:50:49.657Z,3.00
2023-10-29T14:53:16.879Z,2.88
2023-10-29T14:55:48.021Z,2.47
2023-10-29T14:58:16.057Z,3.35
2023-10-29T15:00:44.426Z,33.25
2023-10-29T15:03:12.779Z,375.52
2023-10-29T15:05:40.637Z,80.50
2023-10-29T15:08:07.953Z,29.63
2023-10-29T15:10:35.361Z,6.15
2023-10-29T15:13:02.431Z,2.40
2023-10-29T15:15:31.862Z,2.55
2023-10-29T15:17:59.385Z,2.83
2023-10-29T15:20:28.153Z,2.20
2023-10-29T15:22:55.841Z,2.90
2023-10-29T15:25:23.346Z,10.13
2023-10-29T15:27:50.377Z,12.18
2023-10-29T15:30:17.797Z,26.92
2023-10-29T15:32:44.871Z,28.58
2023-10-29T15:35:12.284Z,38.50
2023-10-29T15:37:39.683Z,9.13
2023-10-29T15:40:07.969Z,6.10
2023-10-29T15:42:35.071Z,2.60
2023-10-29T15:45:02.460Z,12.55
2023-10-29T15:47:29.545Z,95.80
2023-10-29T15:49:57.724Z,150.63
2023-10-29T15:52:24.725Z,77.05
2023-10-29T15:54:52.144Z,51.10
2023-10-29T15:57:19.450Z,44.78
2023-10-29T15:59:46.877Z,43.45
2023-10-29T16:02:13.847Z,1074.72
2023-10-29T16:04:41.250Z,1985.32
2023-10-29T16:07:09.502Z,1215.05
2023-10-29T16:09:38.203Z,775.85
2023-10-29T16:12:09.422Z,347.92
2023-10-29T16:14:37.055Z,160.02
2023-10-29T16:17:04.554Z,112.53
2023-10-29T16:19:32.301Z,113.53
2023-10-29T16:21:59.694Z,129.10
2023-10-29T16:24:29.451Z,128.50
2023-10-29T16:26:58.096Z,114.85
2023-10-29T16:29:25.686Z,180.52
2023-10-29T16:31:52.771Z,138.95
2023-10-29T16:34:20.600Z,83.07
2023-10-29T16:36:47.797Z,113.78
2023-10-29T16:39:15.100Z,93.80
2023-10-29T16:41:42.185Z,126.80
2023-10-29T16:44:09.422Z,164.27
2023-10-29T16:46:36.505Z,252.48
2023-10-29T16:49:04.002Z,218.20
2023-10-29T16:51:31.714Z,200.20
2023-10-29T16:53:59.453Z,149.45
2023-10-29T16:56:26.810Z,85.10
2023-10-29T16:58:54.152Z,80.68
2023-10-29T17:01:21.481Z,92.18
2023-10-29T17:03:50.180Z,145.38
2023-10-29T17:06:18.608Z,101.85
2023-10-29T17:08:46.211Z,96.55
2023-10-29T17:11:13.148Z,98.93
2023-10-29T17:13:40.419Z,56.42
2023-10-29T17:16:07.616Z,56.60
2023-10-29T17:18:35.674Z,80.15
2023-10-29T17:21:03.354Z,138.30
2023-10-29T17:23:30.911Z,87.20
2023-10-29T17:25:58.139Z,98.30
2023-10-29T17:28:25.749Z,93.57
2023-10-29T17:30:52.658Z,50.25
2023-10-29T17:33:20.196Z,133.45
2023-10-29T17:35:47.141Z,91.45
2023-10-29T17:38:14.486Z,61.40
2023-10-29T17:40:41.458Z,213.13
2023-10-29T17:43:10.337Z,112.53
2023-10-29T17:45:40.158Z,81.68
2023-10-29T17:48:07.808Z,86.43
2023-10-29T17:50:34.940Z,75.88
2023-10-29T17:53:03.191Z,52.65
2023-10-29T17:55:30.249Z,72.35
2023-10-29T17:58:00.764Z,143.15
2023-10-29T18:00:28.185Z,46.45
2023-10-29T18:02:55.944Z,78.85
2023-10-29T18:05:24.259Z,30.85
2023-10-29T18:07:51.654Z,38.95
2023-10-29T18:10:18.741Z,24.75
2023-10-29T18:12:46.045Z,34.58
2023-10-29T18:15:13.100Z,75.45
2023-10-29T18:17:40.438Z,30.75
2023-10-29T18:20:08.181Z,26.60
2023-10-29T18:22:35.476Z,26.42
2023-10-29T18:25:02.573Z,10.30
2023-10-29T18:27:29.926Z,13.98
2023-10-29T18:29:57.054Z,11.75
2023-10-29T18:32:24.412Z,28.98
2023-10-29T18:34:51.619Z,12.68
2023-10-29T18:37:18.942Z,18.77
2023-10-29T18:39:45.884Z,15.68
2023-10-29T18:42:14.667Z,9.45
2023-10-29T18:44:41.741Z,17.50
2023-10-29T18:47:10.373Z,11.32
2023-10-29T18:49:37.644Z,17.08
2023-10-29T18:52:05.593Z,8.32
2023-10-29T18:54:34.210Z,14.90
2023-10-29T18:57:03.360Z,15.60
2023-10-29T18:59:30.414Z,19.67
2023-10-29T19:01:57.675Z,18.70
2023-10-29T19:04:25.566Z,19.55
2023-10-29T19:06:53.267Z,25.85
2023-10-29T19:09:21.606Z,14.82
2023-10-29T19:11:48.864Z,29.80
2023-10-29T19:14:15.774Z,26.48
2023-10-29T19:16:42.988Z,15.75
2023-10-29T19:19:11.289Z,21.77
2023-10-29T19:21:38.621Z,11.18
2023-10-29T19:24:06.035Z,17.63
2023-10-29T19:26:33.444Z,25.80
2023-10-29T19:29:00.352Z,49.92
2023-10-29T19:31:28.149Z,23.15
2023-10-29T19:33:55.590Z,22.15
2023-10-29T19:36:23.333Z,13.63
2023-10-29T19:38:50.382Z,18.90
2023-10-29T19:41:17.662Z,20.67
2023-10-29T19:43:44.906Z,14.45
2023-10-29T19:46:12.263Z,59.10
2023-10-29T19:48:39.338Z,22.35
2023-10-29T19:51:08.811Z,17.65
2023-10-29T19:53:36.686Z,20.35
2023-10-29T19:56:12.665Z,14.63
2023-10-29T19:58:40.462Z,17.08
2023-10-29T20:01:10.327Z,14.82
2023-10-29T20:03:37.881Z,165.93
2023-10-29T20:06:09.417Z,43.00
2023-10-29T20:08:37.575Z,27.63
2023-10-29T20:11:12.665Z,501.02
2023-10-29T20:13:41.029Z,1554.07
2023-10-29T20:16:08.754Z,124.65
2023-10-29T20:18:36.654Z,61.10
2023-10-29T20:21:05.359Z,27.02
2023-10-29T20:23:32.675Z,34.40
2023-10-29T20:26:04.315Z,31.45
2023-10-29T20:28:31.844Z,21.45
2023-10-29T20:30:58.789Z,29.45
2023-10-29T20:33:26.217Z,42.70
2023-10-29T20:35:53.177Z,37.40
2023-10-29T20:38:20.593Z,20.92
2023-10-29T20:40:47.599Z,12.18
2023-10-29T20:43:14.991Z,14.65
2023-10-29T20:45:41.919Z,14.20
2023-10-29T20:48:09.340Z,12.77
2023-10-29T20:50:37.266Z,12.13
2023-10-29T20:53:04.535Z,25.83
2023-10-29T20:55:31.828Z,24.95
2023-10-29T20:57:59.879Z,21.27
2023-10-29T21:00:30.232Z,65.97
2023-10-29T21:02:59.662Z,45.95
2023-10-29T21:05:28.555Z,32.17
2023-10-29T21:07:56.097Z,24.85
2023-10-29T21:10:23.063Z,40.97
2023-10-29T21:12:51.528Z,20.13
2023-10-29T21:15:20.874Z,29.77
2023-10-29T21:17:48.959Z,21.15
2023-10-29T21:20:15.999Z,15.25
2023-10-29T21:22:43.380Z,14.25
2023-10-29T21:25:10.777Z,19.25
2023-10-29T21:27:38.272Z,25.15
2023-10-29T21:30:08.123Z,32.95
2023-10-29T21:32:35.570Z,27.77
2023-10-29T21:35:02.629Z,21.08
2023-10-29T21:37:30.033Z,12.40
2023-10-29T21:39:57.012Z,12.35
2023-10-29T21:42:24.486Z,15.23
2023-10-29T21:44:51.485Z,25.00
2023-10-29T21:47:18.816Z,12.90
2023-10-29T21:49:51.136Z,20.08
2023-10-29T21:52:18.394Z,18.88
2023-10-29T21:54:51.106Z,16.02
2023-10-29T21:57:19.071Z,12.27
2023-10-29T21:59:48.704Z,9.75
2023-10-29T22:02:16.266Z,18.13
2023-10-29T22:04:43.445Z,17.25
2023-10-29T22:07:10.823Z,15.68
2023-10-29T22:09:37.848Z,11.43
2023-10-29T22:12:05.510Z,13.25
2023-10-29T22:14:32.508Z,14.63
2023-10-29T22:16:59.796Z,11.70
2023-10-29T22:19:26.693Z,11.15
2023-10-29T22:21:54.061Z,18.35
2023-10-29T22:24:21.211Z,24.10
2023-10-29T22:26:48.567Z,14.65
2023-10-29T22:29:15.560Z,15.13
2023-10-29T22:31:42.908Z,16.45
2023-10-29T22:34:09.816Z,8.32
2023-10-29T22:36:37.211Z,10.10
2023-10-29T22:39:04.362Z,20.55
2023-10-29T22:41:31.920Z,11.80
2023-10-29T22:43:58.789Z,22.13
2023-10-29T22:46:26.123Z,13.93
2023-10-29T22:48:53.623Z,17.05
2023-10-29T22:51:21.697Z,10.77
2023-10-29T22:53:48.767Z,10.93
2023-10-29T22:56:16.176Z,16.50
2023-10-29T22:58:43.177Z,12.20
2023-10-29T23:01:10.617Z,10.73
2023-10-29T23:03:37.918Z,8.02
2023-10-29T23:06:06.156Z,13.00
2023-10-29T23:08:34.544Z,11.93
2023-10-29T23:11:02.061Z,11.45
2023-10-29T23:13:29.077Z,14.07
2023-10-29T23:15:56.915Z,19.33
2023-10-29T23:18:25.682Z,14.80
2023-10-29T23:20:53.655Z,11.50
2023-10-29T23:23:20.767Z,10.68
2023-10-29T23:25:48.127Z,10.45
2023-10-29T23:28:30.339Z,13.05
2023-10-29T23:31:02.082Z,10.05
2023-10-29T23:33:29.509Z,13.68
2023-10-29T23:35:56.932Z,18.10
2023-10-29T23:38:23.872Z,7.57
2023-10-29T23:40:51.286Z,9.07
2023-10-29T23:43:18.260Z,7.53
2023-10-29T23:45:45.653Z,8.82
2023-10-29T23:48:13.181Z,8.48
2023-10-29T23:50:40.503Z,8.85
2023-10-29T23:53:07.629Z,9.55
2023-10-29T23:55:34.957Z,8.25
2023-10-29T23:58:01.927Z,9.23
